Time;durP1;ratioP1;P1;durP2;ratioP2;P2;SDS_P1;SDS_P2;PMS_P1;PMS_P2;Temp;Humidity;BMP_temperature;BMP_pressure;BME280_temperature;BME280_humidity;BME280_pressure;Samples;Min_cycle;Max_cycle;Signal;HPM_P1;HPM_P2
2022/12/04 00:00:12;;;;;;;;;8.75;7.50;;;;;20.14;38.21;101249.78;5015167;28;45296;-71
2022/12/04 00:02:40;;;;;;;;;9.75;6.50;;;;;20.13;38.65;101246.31;5015400;28;45522;-72
2022/12/04 00:05:07;;;;;;;;;9.00;8.00;;;;;20.12;38.40;101244.63;5015103;28;47137;-72
2022/12/04 00:07:32;;;;;;;;;9.25;9.25;;;;;20.09;38.75;101242.28;5014546;28;45426;-71
2022/12/04 00:09:58;;;;;;;;;9.75;7.50;;;;;19.97;38.57;101225.88;5015253;28;45479;-72
2022/12/04 00:12:23;;;;;;;;;7.75;7.25;;;;;20.01;38.83;101226.41;5015417;28;45297;-72
2022/12/04 00:14:49;;;;;;;;;10.00;8.00;;;;;20.10;38.63;101243.94;5015135;28;45896;-70
2022/12/04 00:17:14;;;;;;;;;10.25;8.00;;;;;20.11;38.54;101242.97;5015159;28;45438;-71
2022/12/04 00:19:40;;;;;;;;;11.00;7.00;;;;;20.11;38.57;101242.97;5015260;28;45353;-71
2022/12/04 00:22:05;;;;;;;;;7.75;6.75;;;;;20.11;38.57;101235.03;4997225;28;45407;-71
2022/12/04 00:24:30;;;;;;;;;11.00;8.00;;;;;20.10;38.63;101254.50;5014974;28;46995;-71
2022/12/04 00:26:56;;;;;;;;;10.00;7.50;;;;;20.10;38.75;101236.03;5015025;28;45474;-71
2022/12/04 00:29:21;;;;;;;;;9.50;8.00;;;;;20.10;38.66;101237.81;5015087;28;45368;-71
2022/12/04 00:31:47;;;;;;;;;7.75;7.00;;;;;20.07;38.64;101226.59;5015225;28;45476;-72
2022/12/04 00:34:12;;;;;;;;;9.00;6.25;;;;;20.01;38.48;101214.00;5014759;28;46138;-71
2022/12/04 00:36:37;;;;;;;;;7.25;7.25;;;;;20.09;38.35;101226.44;5014442;28;45379;-71
2022/12/04 00:39:04;;;;;;;;;9.25;7.00;;;;;20.09;38.72;101234.34;5014951;28;45365;-72
2022/12/04 00:41:31;;;;;;;;;7.25;7.00;;;;;20.10;38.64;101222.81;5017839;28;45299;-71
2022/12/04 00:43:56;;;;;;;;;9.25;8.25;;;;;20.09;38.66;101225.63;5018266;28;45365;-71
2022/12/04 00:46:22;;;;;;;;;9.00;7.75;;;;;20.09;38.56;101226.44;5018028;28;45421;-71
2022/12/04 00:48:47;;;;;;;;;7.75;7.75;;;;;20.08;38.72;101216.88;5018332;28;45421;-72
2022/12/04 00:51:23;;;;;;;;;12.50;9.00;;;;;20.06;38.70;101211.72;5018023;28;45371;-71
2022/12/04 00:53:50;;;;;;;;;8.75;8.00;;;;;20.05;38.60;101225.09;5018015;28;47087;-71
2022/12/04 00:56:20;;;;;;;;;10.75;8.00;;;;;20.06;38.52;101229.41;5018154;28;45286;-71
2022/12/04 00:58:46;;;;;;;;;7.50;6.00;;;;;20.04;38.63;101228.72;5018200;28;45407;-71
2022/12/04 01:01:14;;;;;;;;;13.00;7.00;;;;;20.05;38.75;101220.66;5017857;28;45398;-71
2022/12/04 01:03:40;;;;;;;;;8.75;8.75;;;;;20.07;38.59;101228.41;5018015;28;46316;-71
2022/12/04 01:06:06;;;;;;;;;8.50;7.75;;;;;20.07;38.46;101218.66;5017607;28;45483;-71
2022/12/04 01:08:32;;;;;;;;;5.50;5.50;;;;;20.07;38.54;101221.31;5018150;28;45505;-71
2022/12/04 01:10:58;;;;;;;;;7.75;7.75;;;;;20.07;38.51;101218.66;5017857;28;45347;-71
2022/12/04 01:13:25;;;;;;;;;11.00;9.00;;;;;19.98;38.49;101203.78;5017613;28;47177;-71
2022/12/04 01:15:51;;;;;;;;;13.50;10.25;;;;;19.98;38.51;101197.66;5017745;28;45502;-71
2022/12/04 01:18:17;;;;;;;;;8.00;7.00;;;;;20.10;38.28;101222.81;5017881;28;45419;-71
2022/12/04 01:20:47;;;;;;;;;10.25;9.50;;;;;20.02;38.48;101209.56;5017340;28;45323;-71
2022/12/04 01:23:12;;;;;;;;;7.75;6.25;;;;;20.11;38.80;101234.22;5017740;28;46137;-71
2022/12/04 01:25:38;;;;;;;;;8.50;8.25;;;;;20.02;38.13;101213.03;5017468;28;45216;-72
2022/12/04 01:28:03;;;;;;;;;8.75;7.75;;;;;20.09;38.35;101221.16;5017713;28;45593;-71
2022/12/04 01:30:28;;;;;;;;;9.50;9.50;;;;;20.10;38.29;101220.16;5017801;28;45439;-71
2022/12/04 01:32:54;;;;;;;;;9.00;8.75;;;;;20.12;38.26;101226.16;5017421;28;50941;-71
2022/12/04 01:35:19;;;;;;;;;7.75;7.75;;;;;20.12;38.25;101218.22;5017029;28;50915;-71
2022/12/04 01:37:44;;;;;;;;;12.75;10.50;;;;;20.12;38.47;101223.50;5017603;28;45387;-71
2022/12/04 01:40:14;;;;;;;;;8.50;6.00;;;;;20.13;38.40;101224.34;5017643;28;45356;-71
2022/12/04 01:42:39;;;;;;;;;8.75;8.00;;;;;20.12;38.69;101214.75;5017569;28;46372;-71
2022/12/04 01:45:24;;;;;;;;;9.25;8.00;;;;;20.11;38.26;101208.63;5017310;28;46960;-71
2022/12/04 01:47:54;;;;;;;;;7.75;7.75;;;;;20.10;38.35;101217.53;5017617;28;45368;-71
2022/12/04 01:50:20;;;;;;;;;10.50;9.00;;;;;20.10;38.55;101211.41;5017055;28;45427;-72
2022/12/04 01:52:46;;;;;;;;;8.50;6.50;;;;;20.10;38.51;101208.75;5016849;28;46007;-71
2022/12/04 01:55:12;;;;;;;;;9.50;8.00;;;;;20.10;38.66;101208.75;5017212;28;45456;-71
2022/12/04 01:57:38;;;;;;;;;10.25;7.50;;;;;20.09;38.45;101207.94;5017307;28;45418;-71
2022/12/04 02:00:09;;;;;;;;;12.50;9.00;;;;;20.08;38.38;101203.66;5016979;28;45410;-71
2022/12/04 02:02:41;;;;;;;;;9.50;8.75;;;;;20.03;38.35;101198.03;5017155;28;46293;-71
2022/12/04 02:05:10;;;;;;;;;8.00;8.00;;;;;20.04;38.42;101189.09;5016793;28;45416;-71
2022/12/04 02:07:38;;;;;;;;;10.75;9.00;;;;;20.09;38.43;101194.72;5017001;28;45400;-71
2022/12/04 02:10:07;;;;;;;;;10.50;10.25;;;;;20.08;38.33;101190.44;5016969;28;45395;-71
2022/12/04 02:12:48;;;;;;;;;8.25;7.00;;;;;20.05;38.52;101178.38;5016872;28;46384;-71
2022/12/04 02:15:45;;;;;;;;;8.00;6.00;;;;;20.05;38.48;101182.84;5016962;28;45319;-71
2022/12/04 02:18:30;;;;;;;;;9.25;7.50;;;;;20.06;38.76;101187.13;4997928;28;45413;-71
2022/12/04 02:21:13;;;;;;;;;10.00;8.25;;;;;20.02;38.48;101181.34;5016934;28;45586;-71
2022/12/04 02:24:00;;;;;;;;;7.25;7.25;;;;;20.05;38.69;101188.13;5016486;28;47073;-71
2022/12/04 02:26:38;;;;;;;;;10.25;8.00;;;;;20.06;38.69;101195.06;5016624;28;45363;-71
2022/12/04 02:29:30;;;;;;;;;8.25;6.50;;;;;20.06;38.60;101195.06;5016722;28;45740;-71
2022/12/04 02:32:05;;;;;;;;;7.25;7.00;;;;;20.05;38.54;101202.16;5016333;28;45412;-71
2022/12/04 02:35:00;;;;;;;;;6.75;6.75;;;;;20.05;38.36;101193.41;5016532;28;45391;-71
2022/12/04 02:37:36;;;;;;;;;8.75;7.75;;;;;20.04;38.45;101197.00;5016301;28;45597;-71
2022/12/04 02:40:18;;;;;;;;;6.50;6.50;;;;;20.03;38.33;101185.66;5016599;28;45352;-71
2022/12/04 02:42:49;;;;;;;;;8.25;8.00;;;;;20.04;38.53;101182.00;5016579;28;45378;-72
2022/12/04 02:45:25;;;;;;;;;9.00;5.00;;;;;19.96;38.41;101172.22;5016335;28;46361;-71
2022/12/04 02:47:52;;;;;;;;;6.25;4.25;;;;;19.96;38.27;101179.31;5016026;28;45467;-71
2022/12/04 02:50:21;;;;;;;;;10.00;7.75;;;;;20.04;38.44;101191.72;5016418;28;45399;-71
2022/12/04 02:53:16;;;;;;;;;4.25;4.25;;;;;20.00;38.38;101169.28;4998548;28;45339;-71
2022/12/04 02:55:54;;;;;;;;;9.50;7.00;;;;;20.04;38.30;101174.06;5016015;28;47439;-71
2022/12/04 02:58:32;;;;;;;;;6.75;6.75;;;;;20.02;38.07;101183.13;5016226;28;45325;-71
2022/12/04 03:01:01;;;;;;;;;9.75;8.25;;;;;20.01;38.37;101177.03;5015609;28;45402;-71
2022/12/04 03:03:30;;;;;;;;;11.25;8.50;;;;;20.03;38.33;101176.88;5015491;28;45229;-71
2022/12/04 03:06:02;;;;;;;;;8.00;8.00;;;;;20.03;38.20;101177.72;5015900;28;46168;-71
2022/12/04 03:08:38;;;;;;;;;8.75;6.50;;;;;20.04;38.31;101184.63;5016143;28;45479;-71
2022/12/04 03:11:03;;;;;;;;;6.00;4.75;;;;;20.04;38.29;101175.88;5016143;28;45281;-71
2022/12/04 03:13:38;;;;;;;;;8.50;7.75;;;;;20.04;38.42;101184.63;5016002;28;45524;-72
2022/12/04 03:16:11;;;;;;;;;7.75;7.00;;;;;20.05;38.11;101181.03;4997685;28;46202;-71
2022/12/04 03:18:47;;;;;;;;;8.00;6.75;;;;;19.96;38.17;101161.66;5015905;28;45406;-71
2022/12/04 03:21:18;;;;;;;;;7.75;7.00;;;;;20.07;38.21;101181.69;5016051;28;45414;-71
2022/12/04 03:23:54;;;;;;;;;7.00;7.00;;;;;20.05;37.96;101181.03;5015894;28;45390;-71
2022/12/04 03:26:33;;;;;;;;;8.25;8.25;;;;;20.07;38.14;101176.41;5015659;28;45535;-71
2022/12/04 03:29:24;;;;;;;;;7.50;6.00;;;;;19.91;38.31;101152.56;5015836;28;45403;-71
2022/12/04 03:32:04;;;;;;;;;7.00;7.00;;;;;20.03;38.13;101177.72;5014838;28;45432;-71
2022/12/04 03:34:37;;;;;;;;;10.00;8.00;;;;;20.06;38.26;101185.31;5015861;28;45285;-71
2022/12/04 03:37:09;;;;;;;;;9.75;9.00;;;;;20.03;38.13;101167.16;5015440;28;47888;-71
2022/12/04 03:40:01;;;;;;;;;11.25;8.25;;;;;20.02;38.17;101168.13;5015396;28;45316;-71
2022/12/04 03:42:37;;;;;;;;;8.00;7.75;;;;;19.99;38.17;101159.69;5009074;28;45316;-71
2022/12/04 03:45:18;;;;;;;;;8.50;8.00;;;;;20.04;38.13;101174.06;5015240;28;45553;-71
2022/12/04 03:47:56;;;;;;;;;11.50;9.00;;;;;20.03;38.23;101169.78;5015425;28;46252;-71
2022/12/04 03:50:38;;;;;;;;;8.75;7.25;;;;;20.04;37.80;101175.88;5015513;28;45383;-72
2022/12/04 03:53:14;;;;;;;;;7.75;7.50;;;;;20.03;38.40;101175.06;5015631;28;45410;-71
2022/12/04 03:55:45;;;;;;;;;6.75;6.00;;;;;19.98;38.14;101161.53;5015533;28;45351;-71
2022/12/04 03:58:21;;;;;;;;;8.75;8.50;;;;;20.01;38.15;101155.09;5015008;28;47713;-71
2022/12/04 04:00:49;;;;;;;;;8.00;8.00;;;;;20.04;38.23;101173.25;5014769;28;45402;-71
2022/12/04 04:03:26;;;;;;;;;9.00;7.00;;;;;20.00;38.09;101156.91;5015538;28;45403;-71
2022/12/04 04:05:56;;;;;;;;;8.00;7.75;;;;;20.01;38.16;101166.47;5015302;28;45423;-71
2022/12/04 04:08:32;;;;;;;;;9.00;7.00;;;;;20.02;38.05;101165.50;5015144;28;47464;-71
2022/12/04 04:11:27;;;;;;;;;8.50;7.50;;;;;20.03;38.14;101174.25;5015079;28;45391;-71
2022/12/04 04:25:15;;;;;;;;;8.00;6.50;;;;;19.91;38.29;101150.75;5018732;28;45771;-72
2022/12/04 04:27:41;;;;;;;;;11.50;7.50;;;;;19.89;38.00;101155.34;5018689;28;45431;-71
2022/12/04 04:30:08;;;;;;;;;12.75;7.00;;;;;20.02;38.08;101162.00;5018105;28;45430;-71
2022/12/04 04:32:43;;;;;;;;;7.75;7.75;;;;;20.02;38.09;101157.56;5018555;28;45472;-72
2022/12/04 04:35:47;;;;;;;;;10.50;9.25;;;;;20.01;38.24;101142.69;5018392;28;45272;-71
2022/12/04 04:38:30;;;;;;;;;10.25;8.75;;;;;20.00;38.31;101138.41;4929693;28;45545;-71
2022/12/04 04:41:05;;;;;;;;;7.75;7.50;;;;;20.00;38.08;101140.22;4918498;28;45500;-71
2022/12/04 04:43:55;;;;;;;;;7.25;7.00;;;;;19.94;38.37;101136.41;4918269;28;45560;-71
2022/12/04 04:46:33;;;;;;;;;7.00;7.00;;;;;20.00;37.90;101146.34;4918688;28;45445;-71
2022/12/04 04:49:02;;;;;;;;;8.75;7.75;;;;;20.00;38.32;101146.34;4918603;28;45506;-71
2022/12/04 04:51:30;;;;;;;;;6.75;6.75;;;;;20.01;38.28;101140.06;4918521;28;45370;-71
2022/12/04 04:53:59;;;;;;;;;8.25;8.00;;;;;19.96;38.01;101126.50;4924889;28;45296;-72
2022/12/04 04:56:25;;;;;;;;;7.25;7.00;;;;;20.01;38.09;101134.78;4937724;28;45463;-72
2022/12/04 04:58:51;;;;;;;;;7.75;7.00;;;;;20.01;37.97;101137.41;4937323;28;45349;-72
2022/12/04 05:01:19;;;;;;;;;6.25;6.25;;;;;20.02;37.83;101144.34;4937161;28;46917;-71
2022/12/04 05:03:45;;;;;;;;;9.75;7.00;;;;;19.90;37.79;101125.34;4937641;28;45430;-71
2022/12/04 05:06:10;;;;;;;;;11.50;8.00;;;;;20.04;37.93;101133.63;4921369;28;45358;-72
2022/12/04 05:08:35;;;;;;;;;8.50;7.00;;;;;20.03;37.66;101132.81;4937691;28;45333;-71
2022/12/04 05:11:01;;;;;;;;;10.75;8.00;;;;;20.00;37.82;101134.94;4937473;28;46083;-71
2022/12/04 05:13:28;;;;;;;;;8.75;8.75;;;;;20.04;37.68;101134.44;4937221;28;45421;-71
2022/12/04 05:16:06;;;;;;;;;6.25;5.75;;;;;20.05;37.75;101138.75;5008798;28;45373;-71
2022/12/04 05:18:33;;;;;;;;;9.25;6.25;;;;;20.05;37.91;101135.28;5017810;28;45580;-71
2022/12/04 05:20:58;;;;;;;;;7.50;7.50;;;;;20.03;37.96;101140.75;5017621;28;47182;-71
2022/12/04 05:23:24;;;;;;;;;6.75;5.00;;;;;19.98;38.01;101129.00;5017674;28;45403;-71
2022/12/04 05:25:57;;;;;;;;;7.00;7.00;;;;;19.99;37.83;101135.91;5016817;28;45324;-71
2022/12/04 05:28:22;;;;;;;;;8.25;6.50;;;;;20.04;37.92;101138.91;5017750;28;45394;-72
2022/12/04 05:31:02;;;;;;;;;8.00;8.00;;;;;20.05;37.95;101143.22;5017176;28;53201;-71
2022/12/04 05:33:29;;;;;;;;;8.50;7.50;;;;;19.95;37.95;101125.69;5017497;28;45387;-71
2022/12/04 05:35:58;;;;;;;;;10.00;7.00;;;;;20.02;37.71;101130.31;5017189;28;45430;-71
2022/12/04 05:38:24;;;;;;;;;7.75;5.00;;;;;20.04;37.93;101142.38;5017365;28;45567;-71
2022/12/04 05:40:50;;;;;;;;;6.75;6.75;;;;;20.03;37.58;101143.38;5016991;28;47084;-72
2022/12/04 05:43:15;;;;;;;;;6.00;5.00;;;;;20.04;37.92;101136.25;5017621;28;45320;-71
2022/12/04 05:45:40;;;;;;;;;11.00;7.25;;;;;20.00;37.91;101127.00;5017587;28;45207;-71
2022/12/04 05:48:05;;;;;;;;;6.00;6.00;;;;;20.02;37.88;101133.78;5017483;28;45387;-71
2022/12/04 05:50:31;;;;;;;;;9.00;9.00;;;;;20.01;37.90;101129.47;5017118;28;49248;-71
2022/12/04 05:52:56;;;;;;;;;7.00;6.75;;;;;20.02;37.81;101128.50;5017380;28;45331;-71
2022/12/04 05:55:21;;;;;;;;;8.75;8.50;;;;;20.01;38.09;101133.97;5016918;28;45380;-71
2022/12/04 05:57:47;;;;;;;;;7.75;6.25;;;;;20.01;37.92;101132.13;4999514;28;45421;-71
2022/12/04 06:00:13;;;;;;;;;8.00;7.50;;;;;20.01;37.83;101124.19;5016785;28;46319;-71
2022/12/04 06:02:38;;;;;;;;;7.25;4.75;;;;;20.02;37.75;101122.41;5017156;28;45424;-72
2022/12/04 06:05:04;;;;;;;;;8.25;7.50;;;;;20.01;37.79;101126.03;5016082;28;45404;-72
2022/12/04 06:07:29;;;;;;;;;12.50;9.50;;;;;19.94;37.93;101109.97;5017210;28;45372;-71
2022/12/04 06:09:54;;;;;;;;;6.25;6.25;;;;;20.01;37.90;101124.19;5016695;28;46008;-71
2022/12/04 06:12:20;;;;;;;;;7.00;7.00;;;;;20.01;37.77;101134.78;5017297;28;45380;-71
2022/12/04 06:14:45;;;;;;;;;8.50;7.00;;;;;20.02;37.86;101140.88;5017043;28;45344;-71
2022/12/04 06:17:10;;;;;;;;;9.00;9.00;;;;;20.01;37.98;101141.88;5016905;28;45421;-71
2022/12/04 06:19:36;;;;;;;;;8.00;7.50;;;;;20.01;37.74;101141.88;4999008;28;47186;-71
2022/12/04 06:22:01;;;;;;;;;6.25;5.25;;;;;20.01;37.79;101150.63;4998952;28;45421;-71
2022/12/04 06:24:26;;;;;;;;;7.00;7.00;;;;;20.01;37.89;101149.81;5016640;28;45359;-71
2022/12/04 06:26:56;;;;;;;;;10.50;6.50;;;;;20.02;37.83;101164.66;5016731;28;45422;-71
2022/12/04 06:29:22;;;;;;;;;6.75;6.75;;;;;20.01;37.85;101165.66;5016673;28;45457;-71
2022/12/04 06:31:47;;;;;;;;;8.00;6.50;;;;;20.01;37.97;101157.72;5016756;28;45422;-71
2022/12/04 06:34:13;;;;;;;;;9.75;7.25;;;;;19.94;37.93;101142.50;5016793;28;45522;-71
2022/12/04 06:36:39;;;;;;;;;7.00;7.00;;;;;19.99;37.95;101154.41;5016670;28;45428;-71
2022/12/04 06:39:04;;;;;;;;;8.50;8.50;;;;;20.00;37.77;101164.81;5014968;28;46067;-71
2022/12/04 06:41:30;;;;;;;;;10.50;8.75;;;;;20.01;37.86;101168.31;5016499;28;45394;-71
2022/12/04 06:43:56;;;;;;;;;8.50;6.75;;;;;20.00;37.75;101170.09;5016754;28;45407;-70
2022/12/04 06:46:24;;;;;;;;;10.00;8.25;;;;;19.99;37.86;101163.16;5016561;28;45328;-71
2022/12/04 06:48:50;;;;;;;;;6.50;6.50;;;;;20.01;37.71;101174.38;5016260;28;46153;-72
2022/12/04 06:51:21;;;;;;;;;7.00;6.25;;;;;19.91;37.79;101156.03;5016328;28;45432;-71
2022/12/04 06:53:47;;;;;;;;;8.50;6.75;;;;;20.02;37.73;101181.34;5016014;28;45386;-71
2022/12/04 06:56:16;;;;;;;;;8.00;6.00;;;;;20.02;37.84;101173.41;5016329;28;45307;-71
2022/12/04 06:58:47;;;;;;;;;9.75;8.50;;;;;20.02;37.61;101173.41;5015956;28;46285;-71
2022/12/04 07:01:16;;;;;;;;;6.50;6.50;;;;;20.03;37.67;101172.44;5015906;28;45405;-70
2022/12/04 07:03:42;;;;;;;;;9.00;7.50;;;;;20.03;37.68;101172.44;5016227;28;45387;-71
2022/12/04 07:06:26;;;;;;;;;6.50;6.50;;;;;20.04;37.69;101173.25;5016098;28;45451;-70
2022/12/04 07:08:57;;;;;;;;;7.00;6.00;;;;;20.02;37.61;101181.34;5015618;28;45408;-71
2022/12/04 07:11:23;;;;;;;;;12.25;8.00;;;;;19.98;37.63;101177.38;5015919;28;45365;-71
2022/12/04 07:13:49;;;;;;;;;5.75;5.75;;;;;20.02;37.78;101183.97;5016108;28;45479;-71
2022/12/04 07:16:17;;;;;;;;;7.75;6.50;;;;;20.03;37.51;101182.16;5016084;28;45375;-71
2022/12/04 07:18:42;;;;;;;;;12.00;7.00;;;;;20.02;38.13;101180.50;5015876;28;46039;-71
2022/12/04 07:21:15;;;;;;;;;9.25;6.75;;;;;20.02;37.75;101194.53;5015623;28;45398;-71
2022/12/04 07:23:40;;;;;;;;;8.75;8.75;;;;;19.98;37.70;101201.13;5015763;28;45487;-71
2022/12/04 07:26:07;;;;;;;;;9.25;6.50;;;;;19.98;37.64;101181.81;4998061;28;45197;-70
2022/12/04 07:28:34;;;;;;;;;8.50;6.75;;;;;19.97;38.08;101188.91;5015751;28;46193;-71
2022/12/04 07:31:04;;;;;;;;;7.75;6.00;;;;;20.01;37.74;101192.06;5015723;28;45229;-71
2022/12/04 07:33:29;;;;;;;;;6.25;6.25;;;;;20.01;37.57;101200.81;5015893;28;45344;-72
2022/12/04 07:35:56;;;;;;;;;9.75;6.75;;;;;19.88;37.71;101168.75;5015648;28;45317;-71
2022/12/04 07:38:22;;;;;;;;;8.00;7.00;;;;;20.00;38.07;101180.66;5015149;28;46084;-71
2022/12/04 07:40:47;;;;;;;;;6.50;6.50;;;;;20.01;37.77;101186.78;5015529;28;45399;-71
2022/12/04 07:43:13;;;;;;;;;6.00;6.00;;;;;19.99;37.72;101186.09;5015929;28;45280;-71
2022/12/04 07:45:38;;;;;;;;;7.75;7.00;;;;;20.01;37.70;101194.72;5015610;28;45360;-71
2022/12/04 07:48:04;;;;;;;;;8.50;7.25;;;;;20.00;37.68;101191.25;5015476;28;45400;-71
2022/12/04 07:50:29;;;;;;;;;7.50;5.75;;;;;20.01;37.31;101192.06;5015346;28;45341;-71
2022/12/04 07:52:54;;;;;;;;;6.75;6.75;;;;;19.92;37.57;101184.09;5015235;28;45367;-71
2022/12/04 07:55:19;;;;;;;;;6.00;6.00;;;;;20.01;37.68;101202.63;5015592;28;45516;-71
2022/12/04 07:57:45;;;;;;;;;11.50;10.00;;;;;20.00;37.71;101206.25;5015459;28;45587;-71
2022/12/04 08:00:11;;;;;;;;;8.75;6.75;;;;;20.00;37.46;101206.25;5015123;28;46232;-71
2022/12/04 08:02:36;;;;;;;;;6.00;6.00;;;;;19.99;37.60;101194.84;5015485;28;45418;-71
2022/12/04 08:05:01;;;;;;;;;8.50;7.00;;;;;19.99;37.67;101188.72;5015443;28;45399;-71
2022/12/04 08:07:27;;;;;;;;;7.25;7.00;;;;;20.00;37.68;101193.88;4997224;28;47038;-71
2022/12/04 08:09:52;;;;;;;;;7.50;5.75;;;;;19.99;37.60;101199.31;5015355;28;45331;-71
2022/12/04 08:12:17;;;;;;;;;8.00;6.75;;;;;19.95;37.51;101193.53;5015454;28;45287;-71
2022/12/04 08:14:43;;;;;;;;;7.00;7.00;;;;;19.99;37.59;101194.03;5014086;28;45669;-71
2022/12/04 08:17:08;;;;;;;;;8.25;8.25;;;;;19.89;37.57;101178.28;5015194;28;46320;-71
2022/12/04 08:19:33;;;;;;;;;7.00;7.00;;;;;19.98;37.48;101202.94;5015151;28;45330;-71
2022/12/04 08:21:58;;;;;;;;;8.25;6.00;;;;;19.99;37.42;101200.13;5014901;28;45415;-71
2022/12/04 08:24:24;;;;;;;;;9.25;8.00;;;;;19.95;37.54;101197.00;5015230;28;45458;-71
2022/12/04 08:26:49;;;;;;;;;7.50;5.75;;;;;19.98;37.68;101203.78;4997051;28;48360;-71
2022/12/04 08:29:14;;;;;;;;;8.00;7.25;;;;;19.98;37.53;101195.84;5015107;28;45524;-71
2022/12/04 08:31:40;;;;;;;;;7.75;6.75;;;;;19.98;37.43;101217.00;5015174;28;45569;-71
2022/12/04 08:34:06;;;;;;;;;9.00;6.50;;;;;19.98;37.49;101201.13;5014897;28;45754;-71
2022/12/04 08:36:33;;;;;;;;;7.50;7.50;;;;;19.99;37.54;101209.88;5014511;28;46141;-71
2022/12/04 08:38:59;;;;;;;;;7.50;7.00;;;;;19.94;37.30;101183.94;5014688;28;45368;-71
2022/12/04 08:41:25;;;;;;;;;6.75;6.75;;;;;19.99;37.48;101201.94;5014872;28;45291;-71
2022/12/04 08:43:56;;;;;;;;;10.00;5.50;;;;;19.99;37.58;101208.06;5014943;28;45407;-71
2022/12/04 08:46:24;;;;;;;;;7.50;7.50;;;;;20.01;37.35;101213.19;5014735;28;46607;-71
2022/12/04 08:48:50;;;;;;;;;7.50;6.00;;;;;20.00;37.38;101215.00;5014270;28;45426;-71
2022/12/04 08:51:18;;;;;;;;;7.50;7.00;;;;;20.01;37.35;101223.75;5014962;28;45348;-71
2022/12/04 08:53:44;;;;;;;;;7.50;6.00;;;;;19.99;37.39;101208.06;5014877;28;45440;-71
2022/12/04 08:56:09;;;;;;;;;7.75;7.00;;;;;20.02;37.50;101214.84;5014478;28;46047;-71
2022/12/04 08:58:35;;;;;;;;;8.50;5.25;;;;;20.02;37.17;101225.41;5014768;28;45357;-71
2022/12/04 09:01:10;;;;;;;;;6.50;6.00;;;;;20.01;37.65;101221.94;5015102;28;45340;-71
2022/12/04 09:03:36;;;;;;;;;9.00;7.00;;;;;20.01;37.59;101223.75;5017879;28;45468;-71
2022/12/04 09:06:03;;;;;;;;;7.50;7.00;;;;;20.02;37.38;101214.84;5017950;28;45494;-71
2022/12/04 09:08:29;;;;;;;;;9.00;7.75;;;;;19.99;37.47;101212.50;5018001;28;45364;-71
2022/12/04 09:10:54;;;;;;;;;7.00;6.00;;;;;20.01;37.41;101198.16;5018045;28;46045;-71
2022/12/04 09:13:20;;;;;;;;;11.25;5.00;;;;;20.01;37.38;101194.72;5017996;28;45423;-71
2022/12/04 09:15:45;;;;;;;;;8.50;6.00;;;;;20.00;37.20;101193.88;5011903;28;46123;-70
2022/12/04 09:18:10;;;;;;;;;7.25;6.00;;;;;20.00;37.35;101204.44;5005042;28;45884;-71
2022/12/04 09:20:36;;;;;;;;;7.00;5.50;;;;;20.01;37.57;101207.91;5001615;28;45379;-70
2022/12/04 09:23:03;;;;;;;;;5.50;5.50;;;;;20.01;37.62;101202.63;4998192;28;45514;-70
2022/12/04 09:25:28;;;;;;;;;7.00;7.00;;;;;19.98;37.61;101201.13;4997619;28;46297;-75
2022/12/04 09:27:54;;;;;;;;;6.75;5.00;;;;;20.00;37.75;101206.25;4980146;28;45411;-70
2022/12/04 09:30:19;;;;;;;;;7.00;6.75;;;;;19.91;37.68;101187.72;4997892;28;45411;-69
2022/12/04 09:32:44;;;;;;;;;5.25;5.25;;;;;20.00;37.78;101212.38;4997335;28;45379;-69
2022/12/04 09:35:10;;;;;;;;;4.50;4.00;;;;;19.96;37.80;101203.91;4997715;28;46842;-69
2022/12/04 09:37:35;;;;;;;;;4.25;4.25;;;;;19.99;37.93;101215.97;5000639;28;45408;-69
2022/12/04 09:40:02;;;;;;;;;7.25;7.25;;;;;20.00;38.17;101215.00;5017558;28;45324;-71
2022/12/04 09:42:46;;;;;;;;;10.00;8.00;;;;;19.99;38.11;101215.97;5017679;28;45357;-69
2022/12/04 09:45:19;;;;;;;;;12.50;5.75;;;;;20.00;38.19;101224.75;5017125;28;46514;-71
2022/12/04 09:47:49;;;;;;;;;10.00;7.50;;;;;20.01;38.37;101213.19;5016826;28;45337;-70
2022/12/04 09:50:39;;;;;;;;;8.50;8.25;;;;;20.01;38.55;101221.13;5017346;28;45432;-71
2022/12/04 09:53:12;;;;;;;;;8.00;8.00;;;;;20.00;38.50;101216.81;5017201;28;45431;-71
2022/12/04 09:55:49;;;;;;;;;11.00;7.25;;;;;20.01;38.54;101224.56;5017012;28;47119;-72
2022/12/04 09:58:22;;;;;;;;;9.00;5.50;;;;;20.00;38.70;101222.09;5017054;28;45374;-70
2022/12/04 10:00:51;;;;;;;;;9.00;7.50;;;;;20.03;38.77;101235.81;5016346;28;45462;-70
2022/12/04 10:03:19;;;;;;;;;8.75;7.25;;;;;20.04;38.54;101234.00;5016777;28;45411;-69
2022/12/04 10:06:10;;;;;;;;;10.25;9.25;;;;;20.05;38.99;101243.59;5016889;28;46432;-70
2022/12/04 10:08:42;;;;;;;;;8.75;7.00;;;;;20.06;38.88;101245.25;5016966;28;45418;-73
2022/12/04 10:11:16;;;;;;;;;9.75;7.50;;;;;20.07;38.94;101245.09;5016333;28;45375;-72
2022/12/04 10:14:03;;;;;;;;;7.75;6.50;;;;;20.09;38.46;101254.69;5016550;28;45493;-70
2022/12/04 10:16:55;;;;;;;;;8.50;7.25;;;;;20.11;38.55;101255.34;5016453;28;45367;-70
2022/12/04 10:19:36;;;;;;;;;8.25;7.00;;;;;20.11;38.59;101244.78;5016808;28;45492;-70
2022/12/04 10:22:23;;;;;;;;;10.50;8.50;;;;;20.11;38.60;101240.31;5016898;28;45309;-70
2022/12/04 10:25:10;;;;;;;;;10.00;7.00;;;;;20.02;38.28;101206.91;5016907;28;45327;-70
2022/12/04 10:27:47;;;;;;;;;10.00;7.50;;;;;20.02;38.49;101201.63;5016514;28;46144;-69
2022/12/04 10:30:19;;;;;;;;;9.75;8.00;;;;;20.11;38.20;101213.06;5009923;28;45636;-70
2022/12/04 10:32:45;;;;;;;;;9.50;8.00;;;;;20.11;38.36;101194.59;5000443;28;45328;-71
2022/12/04 10:35:26;;;;;;;;;7.75;6.00;;;;;20.12;38.15;101214.75;4996796;28;45423;-71
2022/12/04 10:37:58;;;;;;;;;9.50;8.00;;;;;20.06;38.39;101221.47;5001862;28;46308;-70
2022/12/04 10:40:36;;;;;;;;;8.75;8.00;;;;;20.11;38.34;101242.13;5016219;28;45347;-71
2022/12/04 10:43:07;;;;;;;;;8.25;6.75;;;;;20.11;38.44;101236.84;5016567;28;45390;-72
2022/12/04 10:45:33;;;;;;;;;8.75;7.50;;;;;20.10;38.20;101227.25;5016017;28;45509;-72
2022/12/04 10:47:59;;;;;;;;;4.25;4.00;;;;;20.10;38.47;101241.31;5012698;28;46280;-72
2022/12/04 10:50:24;;;;;;;;;9.50;7.75;;;;;20.09;38.28;101237.00;5007005;28;45585;-72
2022/12/04 10:52:50;;;;;;;;;8.00;8.00;;;;;20.08;38.38;101222.16;4998949;28;45320;-72
2022/12/04 10:55:30;;;;;;;;;4.00;4.00;;;;;20.08;38.52;101224.78;5016385;28;45293;-72
2022/12/04 10:57:56;;;;;;;;;8.50;6.50;;;;;20.07;38.60;101226.59;5003210;28;45400;-72
2022/12/04 11:00:29;;;;;;;;;13.00;9.00;;;;;20.08;38.30;101219.50;4995652;28;45578;-71
2022/12/04 11:02:57;;;;;;;;;7.75;7.00;;;;;20.08;38.63;101208.94;4996396;28;45452;-72
2022/12/04 11:05:27;;;;;;;;;9.00;8.00;;;;;20.01;38.76;101198.16;4996195;28;45519;-73
2022/12/04 11:07:54;;;;;;;;;8.75;7.00;;;;;20.07;38.77;101208.09;4996179;28;46194;-73
2022/12/04 11:10:34;;;;;;;;;12.50;9.75;;;;;20.10;38.74;101216.69;4996117;28;45356;-71
2022/12/04 11:13:03;;;;;;;;;6.00;5.75;;;;;20.09;38.88;101228.25;4996138;28;45328;-71
2022/12/04 11:15:29;;;;;;;;;7.00;5.75;;;;;20.10;38.82;101212.25;4995765;28;45434;-73
2022/12/04 11:18:05;;;;;;;;;7.75;5.75;;;;;20.09;38.54;101207.13;4996049;28;46915;-73
2022/12/04 11:20:31;;;;;;;;;12.00;7.00;;;;;20.02;38.65;101194.53;4996084;28;45462;-72
2022/12/04 11:22:57;;;;;;;;;8.75;6.25;;;;;20.05;38.87;101203.97;4996276;28;45840;-72
2022/12/04 11:25:26;;;;;;;;;8.25;7.75;;;;;20.06;38.92;101201.16;4995443;28;45410;-80
2022/12/04 11:27:54;;;;;;;;;9.00;6.25;;;;;20.11;39.02;101207.78;4995982;28;46251;-70
2022/12/04 11:30:26;;;;;;;;;8.00;6.75;;;;;20.07;38.84;101202.81;4995613;28;45341;-72
2022/12/04 11:32:53;;;;;;;;;7.00;6.50;;;;;20.02;39.11;101176.06;4995823;28;45358;-73
2022/12/04 11:35:24;;;;;;;;;8.50;7.25;;;;;20.07;38.86;101194.91;4995737;28;45444;-72
2022/12/04 11:37:54;;;;;;;;;13.00;8.25;;;;;20.06;39.14;101187.13;5000752;28;45425;-72
2022/12/04 11:40:21;;;;;;;;;8.00;5.50;;;;;20.06;39.18;101187.94;5015533;28;45300;-72
2022/12/04 11:43:18;;;;;;;;;6.25;5.75;;;;;20.03;39.43;101177.72;4999797;28;45465;-71
2022/12/04 11:46:01;;;;;;;;;9.00;6.75;;;;;20.09;39.21;101180.72;4997683;28;45399;-73
2022/12/04 11:48:39;;;;;;;;;8.50;8.00;;;;;20.10;39.34;101190.28;5005413;28;45481;-73